Time;durP1;ratioP1;P1;durP2;ratioP2;P2;SDS_P1;SDS_P2;PMS_P1;PMS_P2;Temp;Humidity;BMP_temperature;BMP_pressure;BME280_temperature;BME280_humidity;BME280_pressure;Samples;Min_cycle;Max_cycle;Signal;HPM_P1;HPM_P2
2021/04/19 00:01:23;;;;;;;16.60;15.40;;;;;;;10.01;83.16;100925.41;5113247;27;20728;-79
2021/04/19 00:03:49;;;;;;;17.00;15.53;;;;;;;10.06;83.28;100918.41;5114191;28;20201;-78
2021/04/19 00:06:15;;;;;;;16.80;15.37;;;;;;;9.96;83.88;100911.53;5112880;28;20230;-79
2021/04/19 00:08:41;;;;;;;16.10;14.97;;;;;;;9.98;83.78;100920.22;5113715;27;20260;-78
2021/04/19 00:11:07;;;;;;;16.10;14.90;;;;;;;10.01;83.11;100914.09;5111546;28;20203;-78
2021/04/19 00:13:33;;;;;;;15.37;14.17;;;;;;;10.02;83.62;100915.84;5112561;28;20214;-78
2021/04/19 00:15:59;;;;;;;18.17;16.47;;;;;;;10.04;82.92;100920.16;5111064;28;20222;-79
2021/04/19 00:18:25;;;;;;;17.87;16.27;;;;;;;10.02;82.97;100921.91;5112254;28;20225;-78
2021/04/19 00:20:51;;;;;;;18.33;16.87;;;;;;;9.99;83.48;100914.13;5110992;28;20199;-78
2021/04/19 00:23:17;;;;;;;17.37;16.07;;;;;;;10.04;83.34;100908.88;5111494;28;21160;-78
2021/04/19 00:25:43;;;;;;;16.50;15.20;;;;;;;10.04;83.70;100914.09;5111440;28;20751;-78
2021/04/19 00:28:09;;;;;;;18.20;16.80;;;;;;;10.01;83.68;100911.50;5112189;28;20232;-78
2021/04/19 00:30:35;;;;;;;16.70;15.40;;;;;;;10.10;82.58;100912.28;5112421;27;20300;-78
2021/04/19 00:33:01;;;;;;;17.63;16.07;;;;;;;10.00;83.51;100902.81;5112050;28;20577;-78
2021/04/19 00:35:28;;;;;;;16.97;15.57;;;;;;;10.07;83.05;100916.69;5111827;27;20238;-78
2021/04/19 00:37:53;;;;;;;15.33;14.13;;;;;;;10.07;82.59;100917.53;5112573;28;20208;-78
2021/04/19 00:40:21;;;;;;;17.23;15.83;;;;;;;10.02;83.36;100915.84;5110903;28;20199;-78
2021/04/19 00:42:49;;;;;;;16.97;15.57;;;;;;;10.08;83.24;100915.78;5110762;28;20208;-78
2021/04/19 00:45:17;;;;;;;14.97;13.77;;;;;;;10.10;82.69;100914.88;5111802;28;20217;-78
2021/04/19 00:47:45;;;;;;;15.50;14.30;;;;;;;10.07;83.23;100917.53;5111327;28;20222;-79
2021/04/19 00:50:14;;;;;;;16.17;14.83;;;;;;;10.07;82.94;100920.13;5111445;28;20211;-78
2021/04/19 00:52:40;;;;;;;15.03;13.93;;;;;;;9.99;83.15;100913.25;5111981;28;20292;-78
2021/04/19 00:55:10;;;;;;;14.77;13.67;;;;;;;9.96;83.32;100911.53;5111683;27;20606;-78
2021/04/19 00:57:37;;;;;;;12.70;11.80;;;;;;;10.00;82.70;100915.84;5112129;28;20656;-78
2021/04/19 01:00:10;;;;;;;12.63;11.63;;;;;;;10.04;82.38;100914.94;5112100;27;20206;-79
2021/04/19 01:02:36;;;;;;;11.00;10.27;;;;;;;10.00;82.21;100909.78;5112128;28;20206;-78
2021/04/19 01:05:06;;;;;;;10.73;9.93;;;;;;;10.00;81.98;100915.00;5111993;28;20961;-78
2021/04/19 01:07:32;;;;;;;11.03;10.20;;;;;;;9.96;81.85;100916.75;5112187;28;20209;-78
2021/04/19 01:09:57;;;;;;;10.37;9.57;;;;;;;9.94;82.26;100916.75;5112595;28;20645;-79
2021/04/19 01:12:23;;;;;;;10.13;9.43;;;;;;;9.93;82.47;100919.41;5112806;28;20222;-78
2021/04/19 01:14:50;;;;;;;11.90;11.00;;;;;;;9.94;82.25;100921.97;5111396;28;20226;-78
2021/04/19 01:17:16;;;;;;;11.30;10.50;;;;;;;9.94;82.51;100918.50;5110386;28;20220;-79
2021/04/19 01:19:42;;;;;;;11.20;10.40;;;;;;;9.92;82.25;100922.88;5112363;28;20210;-78
2021/04/19 01:22:09;;;;;;;11.20;10.40;;;;;;;9.90;82.76;100915.06;5111674;28;20557;-78
2021/04/19 01:24:35;;;;;;;12.00;11.10;;;;;;;9.95;82.17;100920.25;5111480;28;20200;-78
2021/04/19 01:27:01;;;;;;;12.50;11.40;;;;;;;9.92;82.99;100909.84;5111853;28;20232;-79
2021/04/19 01:29:27;;;;;;;13.33;12.13;;;;;;;9.92;82.40;100917.66;5111982;28;20298;-78
2021/04/19 01:31:53;;;;;;;12.90;11.90;;;;;;;9.96;82.44;100918.50;5110424;28;20256;-79
2021/04/19 01:34:18;;;;;;;13.33;12.33;;;;;;;9.97;82.80;100920.22;5113076;28;20219;-79
2021/04/19 01:36:47;;;;;;;14.17;13.17;;;;;;;10.00;82.70;100920.22;5112160;28;20607;-78
2021/04/19 01:39:16;;;;;;;15.20;13.83;;;;;;;9.99;82.34;100918.47;5112654;28;20705;-79
2021/04/19 01:41:43;;;;;;;15.33;14.13;;;;;;;9.98;82.74;100915.00;5112336;28;20261;-78
2021/04/19 01:44:09;;;;;;;14.87;13.73;;;;;;;9.96;82.73;100918.50;5111604;28;20205;-79
2021/04/19 01:46:35;;;;;;;15.90;14.70;;;;;;;9.95;82.40;100920.25;5111401;28;20229;-79
2021/04/19 01:49:01;;;;;;;15.67;14.27;;;;;;;9.90;82.83;100911.59;5111086;28;20235;-78
2021/04/19 01:51:27;;;;;;;15.87;14.57;;;;;;;9.95;83.22;100915.03;5109033;28;20862;-78
2021/04/19 01:53:54;;;;;;;16.63;15.43;;;;;;;9.88;82.96;100916.81;5109982;28;20600;-79
2021/04/19 01:56:20;;;;;;;16.27;14.97;;;;;;;9.93;83.41;100914.19;5109416;28;20230;-78
2021/04/19 01:58:46;;;;;;;16.17;14.87;;;;;;;9.88;83.21;100915.97;5111190;28;20212;-78
2021/04/19 02:01:12;;;;;;;17.87;16.37;;;;;;;9.89;83.56;100913.34;5111830;28;20199;-78
2021/04/19 02:04:02;;;;;;;17.40;16.03;;;;;;;9.92;83.32;100910.69;5114173;28;20263;-78
2021/04/19 02:06:34;;;;;;;18.57;17.00;;;;;;;9.90;83.06;100914.19;5113735;27;20646;-78
2021/04/19 02:09:04;;;;;;;18.60;17.03;;;;;;;9.94;83.35;100915.91;5114800;27;20214;-79
2021/04/19 02:11:42;;;;;;;18.87;17.30;;;;;;;9.90;83.17;100919.41;5113863;28;20250;-78
2021/04/19 02:14:15;;;;;;;18.33;16.93;;;;;;;9.91;83.55;100913.31;5114150;28;20231;-78
2021/04/19 02:16:48;;;;;;;19.57;17.97;;;;;;;9.92;83.54;100915.06;5113255;28;20225;-78
2021/04/19 02:19:24;;;;;;;19.20;17.40;;;;;;;9.90;83.64;100912.44;5115305;28;20203;-79
2021/04/19 02:21:52;;;;;;;20.07;18.27;;;;;;;9.88;83.74;100923.78;5115773;28;20206;-79
2021/04/19 02:24:22;;;;;;;19.47;17.97;;;;;;;9.92;83.21;100915.91;5115328;27;20202;-79
2021/04/19 02:26:53;;;;;;;20.17;18.57;;;;;;;9.89;83.63;100917.69;5115243;28;20285;-78
2021/04/19 02:29:26;;;;;;;20.97;19.37;;;;;;;9.89;83.97;100912.47;5116185;27;20206;-79
2021/04/19 02:31:56;;;;;;;20.87;19.10;;;;;;;9.92;83.11;100913.31;5115935;27;20204;-79
2021/04/19 02:34:26;;;;;;;20.57;18.67;;;;;;;9.89;83.06;100920.28;5115702;28;20234;-78
2021/04/19 02:36:55;;;;;;;21.70;19.77;;;;;;;9.93;83.50;100916.81;5115850;27;20224;-79
2021/04/19 02:39:22;;;;;;;23.17;21.07;;;;;;;9.90;83.53;100916.81;5115322;28;20601;-78
2021/04/19 02:41:52;;;;;;;23.97;21.97;;;;;;;9.87;84.06;100916.81;5115706;27;20201;-78
2021/04/19 02:44:20;;;;;;;23.43;21.27;;;;;;;9.90;83.69;100914.19;5115239;28;20202;-79
2021/04/19 02:46:48;;;;;;;24.50;22.10;;;;;;;9.92;83.82;100917.66;5114079;28;20225;-78
2021/04/19 02:49:15;;;;;;;23.30;21.07;;;;;;;9.92;83.28;100913.31;5115975;28;20207;-79
2021/04/19 02:51:43;;;;;;;26.03;23.27;;;;;;;9.92;83.73;100920.28;5114277;28;20210;-79
2021/04/19 02:54:10;;;;;;;23.53;21.53;;;;;;;9.94;83.40;100916.75;5115755;27;20314;-79
2021/04/19 02:56:37;;;;;;;24.77;22.57;;;;;;;9.92;83.37;100915.91;5115174;28;20256;-78
2021/04/19 02:59:08;;;;;;;23.93;21.80;;;;;;;9.90;84.04;100917.66;5116012;28;20572;-79
2021/04/19 03:01:37;;;;;;;25.97;23.63;;;;;;;9.91;83.78;100906.38;5113357;27;20572;-79
2021/04/19 03:04:06;;;;;;;25.03;22.93;;;;;;;9.91;84.00;100914.19;5115569;28;20202;-79
2021/04/19 03:06:34;;;;;;;26.20;23.80;;;;;;;9.92;83.86;100905.47;5114387;27;20231;-79
2021/04/19 03:09:03;;;;;;;28.33;25.57;;;;;;;9.89;83.79;100910.75;5115509;27;20216;-79
2021/04/19 03:11:36;;;;;;;28.53;25.47;;;;;;;9.91;84.12;100910.69;5113940;27;20206;-78
2021/04/19 03:14:06;;;;;;;27.90;24.17;;;;;;;9.88;84.14;100908.13;5114164;27;20286;-79
2021/04/19 03:16:34;;;;;;;29.40;26.27;;;;;;;9.89;84.02;100902.91;5113344;28;20231;-78
2021/04/19 03:19:02;;;;;;;28.40;25.60;;;;;;;9.92;82.97;100908.09;5114862;28;20209;-78
2021/04/19 03:21:31;;;;;;;29.93;27.00;;;;;;;9.96;82.82;100913.28;5114581;28;20240;-79
2021/04/19 03:24:01;;;;;;;28.27;25.30;;;;;;;9.97;82.87;100923.72;5114891;28;20203;-78
2021/04/19 03:26:29;;;;;;;29.47;26.27;;;;;;;9.90;83.07;100922.03;5114815;27;20230;-78
2021/04/19 03:28:58;;;;;;;30.10;25.93;;;;;;;9.87;83.10;100919.44;5114777;27;20209;-79
2021/04/19 03:31:28;;;;;;;28.30;25.23;;;;;;;9.90;82.57;100915.06;5114069;28;20232;-79
2021/04/19 03:34:00;;;;;;;27.03;24.43;;;;;;;9.86;82.65;100923.78;5114164;28;20294;-79
2021/04/19 03:36:31;;;;;;;28.13;25.13;;;;;;;9.87;82.55;100922.03;5114589;27;20234;-79
2021/04/19 03:38:58;;;;;;;29.60;26.47;;;;;;;9.87;82.74;100916.81;5114063;28;20240;-79
2021/04/19 03:41:25;;;;;;;27.67;24.87;;;;;;;9.89;82.08;100917.69;5113996;28;20210;-79
2021/04/19 03:43:56;;;;;;;27.70;25.07;;;;;;;9.85;82.28;100918.59;5113119;27;20214;-79
2021/04/19 03:46:24;;;;;;;27.47;24.70;;;;;;;9.85;81.85;100922.06;5113167;27;20705;-79
2021/04/19 03:48:56;;;;;;;31.43;25.67;;;;;;;9.82;82.08;100918.63;5113045;28;20210;-78
2021/04/19 03:51:23;;;;;;;28.33;25.80;;;;;;;9.79;82.50;100918.63;5113016;28;20628;-78
2021/04/19 03:53:52;;;;;;;27.03;24.17;;;;;;;9.78;82.58;100914.31;5112939;27;20275;-78
2021/04/19 03:56:20;;;;;;;27.33;24.73;;;;;;;9.74;82.37;100908.25;5113880;28;20220;-79
2021/04/19 03:58:48;;;;;;;28.67;25.87;;;;;;;9.70;82.02;100914.38;5113069;27;20370;-78
2021/04/19 04:01:16;;;;;;;28.00;25.17;;;;;;;9.67;82.13;100912.66;5112610;27;21142;-78
2021/04/19 04:03:44;;;;;;;28.37;25.30;;;;;;;9.62;82.40;100909.22;5113575;28;20209;-79
2021/04/19 04:06:13;;;;;;;29.23;26.17;;;;;;;9.62;82.18;100913.56;5113576;28;20224;-79
2021/04/19 04:08:41;;;;;;;33.47;25.83;;;;;;;9.62;82.63;100913.56;5113605;28;20240;-79
2021/04/19 04:11:08;;;;;;;29.70;26.80;;;;;;;9.59;82.39;100913.56;5112278;28;20251;-79
2021/04/19 04:13:34;;;;;;;29.17;26.10;;;;;;;9.61;81.95;100917.03;5114002;28;20282;-79
2021/04/19 04:16:01;;;;;;;29.50;26.67;;;;;;;9.59;82.49;100919.63;5111126;28;20227;-78
2021/04/19 04:18:27;;;;;;;32.37;26.20;;;;;;;9.56;82.26;100916.22;5111774;28;20226;-78
2021/04/19 04:20:54;;;;;;;28.70;25.47;;;;;;;9.54;82.47;100927.50;5109536;28;20690;-78
2021/04/19 04:23:21;;;;;;;27.97;25.03;;;;;;;9.54;81.93;100924.91;5109940;28;20203;-78
2021/04/19 04:25:48;;;;;;;26.13;23.70;;;;;;;9.51;82.37;100927.53;5110173;27;21189;-78
2021/04/19 04:28:14;;;;;;;25.23;22.93;;;;;;;9.48;82.63;100930.16;5110450;28;20206;-78
2021/04/19 04:30:41;;;;;;;26.20;23.47;;;;;;;9.48;82.04;100930.16;5110287;27;20202;-78
2021/04/19 04:33:08;;;;;;;28.67;24.37;;;;;;;9.40;82.27;100934.56;5109428;28;20202;-78
2021/04/19 04:35:35;;;;;;;26.50;23.80;;;;;;;9.44;82.15;100932.81;5109447;28;20691;-78
2021/04/19 04:38:02;;;;;;;26.60;23.97;;;;;;;9.40;81.63;100928.50;5110014;28;20210;-78
2021/04/19 04:40:29;;;;;;;25.60;23.00;;;;;;;9.34;81.52;100935.44;5109719;27;20210;-78
2021/04/19 04:43:00;;;;;;;26.43;23.93;;;;;;;9.33;82.18;100936.31;5109204;28;21152;-78
2021/04/19 04:45:26;;;;;;;25.17;22.77;;;;;;;9.30;81.95;100938.94;5109033;28;20281;-78
2021/04/19 04:47:58;;;;;;;24.97;22.77;;;;;;;9.30;81.46;100938.09;5109451;28;20209;-78
2021/04/19 04:50:29;;;;;;;27.60;25.13;;;;;;;9.25;81.75;100934.63;5109891;28;20198;-78
2021/04/19 04:53:00;;;;;;;28.20;24.63;;;;;;;9.22;81.55;100939.88;5109601;28;20210;-78
2021/04/19 04:55:29;;;;;;;26.30;23.40;;;;;;;9.25;81.54;100942.44;5110200;28;20788;-78
2021/04/19 04:57:55;;;;;;;25.47;23.07;;;;;;;9.26;81.58;100947.66;5109697;28;20206;-78
2021/04/19 05:00:23;;;;;;;27.93;25.00;;;;;;;9.25;81.30;100952.88;5109806;28;20206;-78
2021/04/19 05:02:50;;;;;;;31.43;24.87;;;;;;;9.23;81.68;100946.81;5107790;28;20664;-78
2021/04/19 05:05:17;;;;;;;29.50;26.30;;;;;;;9.23;81.59;100954.63;5108732;28;20226;-78
2021/04/19 05:07:44;;;;;;;30.40;26.80;;;;;;;9.22;81.31;100958.13;5107421;28;20670;-78
2021/04/19 05:10:10;;;;;;;32.53;27.13;;;;;;;9.18;81.98;100956.38;5108129;28;20269;-78
2021/04/19 05:12:38;;;;;;;31.97;26.43;;;;;;;9.19;81.08;100953.75;5109063;28;20206;-78
2021/04/19 05:15:09;;;;;;;31.70;26.57;;;;;;;9.18;81.47;100957.25;5108842;28;20711;-79
2021/04/19 05:17:35;;;;;;;31.60;26.87;;;;;;;9.21;80.75;100959.81;5108984;28;20567;-78
2021/04/19 05:20:01;;;;;;;33.30;26.43;;;;;;;9.21;80.46;100962.44;5109114;28;20205;-79
2021/04/19 05:22:27;;;;;;;31.97;25.50;;;;;;;9.25;80.59;100966.75;5108238;28;21287;-79
2021/04/19 05:24:53;;;;;;;28.93;25.27;;;;;;;9.22;80.27;100964.19;5107867;28;20222;-78
2021/04/19 05:27:19;;;;;;;28.77;25.23;;;;;;;9.14;80.26;100960.75;5108661;28;20204;-79
2021/04/19 05:29:46;;;;;;;27.63;24.83;;;;;;;9.19;80.00;100964.19;5107966;28;20200;-79
2021/04/19 05:32:13;;;;;;;28.83;25.03;;;;;;;9.20;79.66;100963.31;5107132;28;20617;-78
2021/04/19 05:34:39;;;;;;;28.13;25.07;;;;;;;9.20;79.59;100972.88;5108351;28;20312;-79
2021/04/19 05:37:07;;;;;;;26.13;23.40;;;;;;;9.23;79.82;100975.47;5112668;28;20226;-78
2021/04/19 05:39:34;;;;;;;26.37;23.67;;;;;;;9.21;79.88;100970.25;5113606;28;20218;-79
2021/04/19 05:42:01;;;;;;;25.63;23.10;;;;;;;9.24;80.09;100972.84;5111537;28;20549;-79
2021/04/19 05:44:28;;;;;;;25.73;23.30;;;;;;;9.25;79.95;100974.56;5111668;28;20678;-78
2021/04/19 05:46:55;;;;;;;25.50;22.77;;;;;;;9.24;80.26;100974.59;5111272;28;20221;-78
2021/04/19 05:49:21;;;;;;;24.60;22.30;;;;;;;9.21;80.67;100982.41;5113870;28;20197;-79
2021/04/19 05:51:50;;;;;;;24.90;22.63;;;;;;;9.24;79.98;100980.66;5113446;27;20209;-78
2021/04/19 05:54:18;;;;;;;25.20;22.67;;;;;;;9.30;80.23;100983.25;5115413;27;20196;-79
2021/04/19 05:56:59;;;;;;;24.43;22.17;;;;;;;9.32;80.17;100980.63;5113892;27;20703;-79
2021/04/19 05:59:35;;;;;;;24.17;21.53;;;;;;;9.39;80.03;100989.28;5115334;28;20226;-79
2021/04/19 06:02:04;;;;;;;26.07;23.53;;;;;;;9.41;79.70;100990.97;5112848;27;20196;-79
2021/04/19 06:04:38;;;;;;;27.00;23.90;;;;;;;9.42;80.57;100989.28;5114449;28;20202;-79
2021/04/19 06:07:12;;;;;;;26.67;24.07;;;;;;;9.46;80.69;100986.63;5113920;27;20805;-79
2021/04/19 06:09:45;;;;;;;29.17;25.40;;;;;;;9.52;79.79;100993.56;5115203;28;20214;-79
2021/04/19 06:12:12;;;;;;;30.83;26.73;;;;;;;9.54;80.53;101000.47;5114016;28;20230;-79
2021/04/19 06:14:42;;;;;;;28.13;25.03;;;;;;;9.53;80.73;100993.56;5114439;27;20239;-79
2021/04/19 06:17:10;;;;;;;31.07;25.17;;;;;;;9.65;80.06;100997.81;5114868;28;20223;-79
2021/04/19 06:19:39;;;;;;;25.87;23.20;;;;;;;9.69;80.02;100996.94;5116815;27;20201;-79
2021/04/19 06:22:06;;;;;;;28.90;26.07;;;;;;;9.71;79.53;101000.38;5114580;27;20665;-79
2021/04/19 06:24:33;;;;;;;27.80;24.87;;;;;;;9.70;79.34;100996.03;5115509;28;20225;-79
2021/04/19 06:26:59;;;;;;;26.53;24.13;;;;;;;9.77;78.79;100990.78;5116464;28;20251;-80
2021/04/19 06:29:26;;;;;;;26.80;24.13;;;;;;;9.77;79.25;100999.47;5116055;27;20226;-79
2021/04/19 06:31:53;;;;;;;23.70;21.73;;;;;;;9.75;79.44;100996.00;5113175;27;20255;-79
2021/04/19 06:34:20;;;;;;;25.53;22.80;;;;;;;9.81;79.50;100995.09;5116150;28;20208;-79
2021/04/19 06:36:49;;;;;;;22.90;20.93;;;;;;;9.83;79.06;100996.84;5115112;27;20670;-79
2021/04/19 06:39:18;;;;;;;22.43;20.43;;;;;;;9.90;78.95;101003.72;5115685;28;21487;-79
2021/04/19 06:41:44;;;;;;;22.37;20.27;;;;;;;9.93;78.14;101005.47;5115150;27;20228;-79
2021/04/19 06:44:13;;;;;;;20.43;18.50;;;;;;;10.01;77.53;101008.88;5115315;28;20205;-79
2021/04/19 06:46:41;;;;;;;20.70;18.90;;;;;;;10.00;78.20;101007.13;5113795;28;20303;-79
2021/04/19 06:49:09;;;;;;;20.27;18.47;;;;;;;9.98;77.51;101016.72;5116115;28;20218;-79
2021/04/19 06:51:36;;;;;;;20.57;18.87;;;;;;;9.92;77.55;101012.41;5115900;28;20201;-80
2021/04/19 06:54:05;;;;;;;20.97;19.13;;;;;;;9.97;77.75;101004.56;5115844;27;20257;-81
2021/04/19 06:56:35;;;;;;;21.00;19.30;;;;;;;9.99;77.71;101008.03;5114739;27;20331;-80
2021/04/19 06:59:01;;;;;;;19.77;18.20;;;;;;;10.00;77.74;101014.09;5116404;27;20210;-80
2021/04/19 07:01:29;;;;;;;18.77;17.27;;;;;;;10.05;77.43;101012.31;5114015;28;20214;-80
2021/04/19 07:03:59;;;;;;;18.40;16.90;;;;;;;10.03;77.42;101009.72;5113655;27;20214;-81
2021/04/19 07:06:27;;;;;;;17.40;16.00;;;;;;;10.10;77.28;101010.53;5112498;28;20243;-80
2021/04/19 07:09:01;;;;;;;17.20;15.80;;;;;;;10.16;77.05;101005.25;5112985;28;20248;-80
2021/04/19 07:11:30;;;;;;;17.83;16.43;;;;;;;10.19;77.25;101007.88;5113440;27;20256;-81
2021/04/19 07:13:59;;;;;;;18.87;17.37;;;;;;;10.25;77.61;101007.81;5113175;28;20221;-80
2021/04/19 07:16:26;;;;;;;20.17;18.43;;;;;;;10.23;77.15;101012.19;5113250;28;20265;-81
2021/04/19 07:18:52;;;;;;;25.70;23.20;;;;;;;10.19;77.37;101005.25;5112820;28;20236;-81
2021/04/19 07:21:18;;;;;;;21.53;19.73;;;;;;;10.12;77.50;101009.63;5112744;28;20213;-80
2021/04/19 07:23:45;;;;;;;22.90;20.93;;;;;;;10.20;77.15;101004.38;5113095;28;20225;-81
2021/04/19 07:26:12;;;;;;;24.33;22.23;;;;;;;10.17;77.07;101004.41;5113261;28;20218;-81
2021/04/19 07:28:38;;;;;;;40.77;32.57;;;;;;;10.30;76.12;100999.97;5113689;28;20222;-77
2021/04/19 07:31:05;;;;;;;41.00;34.07;;;;;;;10.36;76.13;101004.28;5112662;27;20235;-78
2021/04/19 07:33:33;;;;;;;38.80;33.50;;;;;;;10.45;75.47;100991.16;5112284;28;20250;-79
2021/04/19 07:36:25;;;;;;;36.17;32.23;;;;;;;10.52;74.74;101006.75;5111722;27;20219;-79
2021/04/19 07:38:52;;;;;;;34.63;30.67;;;;;;;10.63;74.80;101004.00;5113974;28;20207;-79
2021/04/19 07:41:19;;;;;;;33.60;30.10;;;;;;;10.62;74.72;101009.25;5111983;28;20210;-79
2021/04/19 07:43:46;;;;;;;43.10;35.67;;;;;;;10.60;74.81;101006.63;5112828;27;20197;-77
2021/04/19 07:46:15;;;;;;;43.40;36.70;;;;;;;10.59;74.58;101009.28;5111698;28;20228;-77
2021/04/19 07:48:45;;;;;;;44.07;36.93;;;;;;;10.70;73.62;101002.19;5112871;28;20302;-78
2021/04/19 07:51:29;;;;;;;44.30;36.63;;;;;;;10.76;72.95;101002.13;5112417;28;21652;-78
2021/04/19 07:54:18;;;;;;;44.83;35.70;;;;;;;10.71;72.97;101003.94;5114331;27;20199;-78
2021/04/19 07:57:04;;;;;;;39.00;34.67;;;;;;;10.68;73.23;101004.84;5112503;27;20324;-78
2021/04/19 07:59:31;;;;;;;41.37;35.83;;;;;;;10.70;73.52;101003.06;5112754;28;20236;-79
2021/04/19 08:01:59;;;;;;;40.33;35.77;;;;;;;10.72;73.88;101008.25;5112106;27;20208;-78
2021/04/19 08:04:26;;;;;;;42.83;35.77;;;;;;;10.79;72.79;101011.69;5113528;28;20212;-78
2021/04/19 08:06:52;;;;;;;41.40;36.90;;;;;;;10.77;73.31;101010.84;5111567;27;20233;-78
2021/04/19 08:09:22;;;;;;;47.47;39.00;;;;;;;10.92;72.12;101008.03;5112681;27;20211;-78
2021/04/19 08:11:52;;;;;;;45.73;38.17;;;;;;;10.99;71.96;101009.72;5112837;28;20216;-78
2021/04/19 08:14:18;;;;;;;40.87;34.67;;;;;;;11.10;71.86;101001.78;5113043;27;20266;-78
2021/04/19 08:16:44;;;;;;;43.30;35.87;;;;;;;11.09;71.64;101003.50;5111394;27;20994;-78
2021/04/19 08:19:10;;;;;;;42.67;36.47;;;;;;;11.11;71.12;101012.19;5111591;28;20201;-78
2021/04/19 08:21:36;;;;;;;43.27;35.73;;;;;;;11.11;71.32;101004.34;5111262;27;20213;-78
2021/04/19 08:24:12;;;;;;;39.13;33.53;;;;;;;11.19;71.13;101004.25;5112896;28;20204;-77
2021/04/19 08:26:53;;;;;;;29.90;26.90;;;;;;;11.20;71.34;101011.22;5111603;28;20281;-77
2021/04/19 08:29:38;;;;;;;30.77;27.77;;;;;;;11.13;71.20;101013.03;5111036;28;20208;-80
2021/04/19 08:32:06;;;;;;;29.67;26.87;;;;;;;11.09;71.00;101015.69;5110646;27;20216;-80
2021/04/19 08:34:35;;;;;;;28.27;25.87;;;;;;;10.98;72.19;101012.34;5112512;28;20570;-79
2021/04/19 08:37:02;;;;;;;24.40;22.30;;;;;;;10.95;71.99;101015.84;5112349;27;20320;-79
2021/04/19 08:39:28;;;;;;;24.53;22.43;;;;;;;10.88;72.00;101015.06;5111554;28;20224;-79
2021/04/19 08:41:55;;;;;;;22.53;20.73;;;;;;;10.90;72.42;101018.53;5112758;27;20192;-77
2021/04/19 08:44:22;;;;;;;24.00;22.00;;;;;;;10.91;72.53;101020.25;5109389;28;20205;-77
2021/04/19 08:46:49;;;;;;;21.63;19.83;;;;;;;10.94;71.79;101016.72;5110974;28;20233;-79
2021/04/19 08:49:15;;;;;;;22.63;20.63;;;;;;;10.91;72.65;101012.41;5113133;28;20204;-80
2021/04/19 08:51:40;;;;;;;22.07;20.30;;;;;;;10.90;72.84;101017.66;5111008;27;20673;-80
2021/04/19 08:54:06;;;;;;;22.23;20.43;;;;;;;10.99;73.03;101014.09;5111716;28;20224;-80
2021/04/19 08:56:33;;;;;;;25.75;23.60;;;;;;;11.13;72.71;101020.84;5110306;28;20504;-80
2021/04/19 08:59:01;;;;;;;24.50;22.50;;;;;;;11.25;72.04;101019.84;5111134;28;20205;-80
2021/04/19 09:01:29;;;;;;;25.37;23.07;;;;;;;11.31;71.41;101018.91;5114001;27;20213;-80
2021/04/19 09:04:06;;;;;;;26.00;23.67;;;;;;;11.36;70.13;101022.34;5111282;28;20206;-80
2021/04/19 09:06:42;;;;;;;26.50;24.07;;;;;;;11.35;69.74;101022.34;5114274;28;20625;-80
2021/04/19 09:09:12;;;;;;;27.00;24.33;;;;;;;11.34;70.11;101026.72;5114964;28;20221;-80
2021/04/19 09:11:38;;;;;;;26.23;23.77;;;;;;;11.39;69.90;101021.44;5113452;28;20213;-80
2021/04/19 09:14:06;;;;;;;27.03;24.43;;;;;;;11.32;70.77;101031.97;5114466;28;20209;-80
2021/04/19 09:16:37;;;;;;;27.87;25.23;;;;;;;11.39;70.15;101037.13;5112934;28;20227;-80
2021/04/19 09:19:04;;;;;;;26.97;24.50;;;;;;;11.46;70.38;101030.94;5113377;28;20684;-80
2021/04/19 09:21:34;;;;;;;20.90;19.30;;;;;;;11.53;70.63;101023.00;5114081;28;20235;-80
2021/04/19 09:24:00;;;;;;;22.77;20.90;;;;;;;11.65;70.58;101024.53;5113339;28;20198;-81
2021/04/19 09:26:51;;;;;;;21.23;19.60;;;;;;;11.74;70.11;101026.19;5113366;28;20315;-80
2021/04/19 09:29:45;;;;;;;22.20;20.27;;;;;;;11.84;69.53;101029.53;5115373;28;20273;-80
2021/04/19 09:32:23;;;;;;;21.33;19.63;;;;;;;12.01;70.03;101022.34;5114346;28;20202;-80
2021/04/19 09:34:52;;;;;;;21.47;19.60;;;;;;;12.05;69.83;101028.34;5113727;28;20224;-81
2021/04/19 09:37:20;;;;;;;21.03;19.03;;;;;;;12.18;68.27;101023.81;5114227;28;20204;-80
2021/04/19 09:39:51;;;;;;;22.07;20.43;;;;;;;12.31;68.09;101020.13;5114527;28;20690;-81
2021/04/19 09:42:19;;;;;;;23.33;21.50;;;;;;;12.39;68.44;101019.94;5114420;28;20915;-81
2021/04/19 09:44:54;;;;;;;23.17;21.37;;;;;;;12.47;67.45;101018.09;5113019;28;20571;-81
2021/04/19 09:47:48;;;;;;;21.43;19.83;;;;;;;12.52;66.66;101009.25;5115293;28;20308;-80
2021/04/19 09:50:16;;;;;;;24.60;22.50;;;;;;;12.46;66.54;101019.81;5114221;28;20215;-80
2021/04/19 09:52:46;;;;;;;25.10;22.80;;;;;;;12.36;67.12;101026.13;5113682;28;20206;-81
2021/04/19 09:55:13;;;;;;;25.27;23.10;;;;;;;12.34;67.18;101022.66;5113725;28;20909;-80
2021/04/19 09:57:39;;;;;;;24.17;22.17;;;;;;;12.30;67.08;101021.00;5114282;28;20613;-80
2021/04/19 10:00:08;;;;;;;24.53;22.13;;;;;;;12.19;67.53;101021.19;5115907;28;20197;-80
2021/04/19 10:02:35;;;;;;;25.40;23.30;;;;;;;12.12;69.44;101017.78;5113795;28;20210;-79
2021/04/19 10:05:03;;;;;;;25.20;23.10;;;;;;;12.42;67.71;101010.31;5112939;28;20198;-80
2021/04/19 10:07:31;;;;;;;24.03;22.20;;;;;;;12.60;67.81;101016.09;5113925;28;20208;-80
2021/04/19 10:10:01;;;;;;;24.80;22.63;;;;;;;12.75;66.06;101009.75;5114272;28;20676;-79
2021/04/19 10:12:30;;;;;;;28.33;25.93;;;;;;;12.84;66.64;101007.81;5116194;28;20241;-80
2021/04/19 10:14:56;;;;;;;25.33;23.23;;;;;;;12.93;66.02;101012.00;5115090;28;20232;-80
2021/04/19 10:17:27;;;;;;;24.00;22.10;;;;;;;13.03;64.78;101012.69;5114479;28;20573;-80
2021/04/19 10:19:53;;;;;;;25.17;23.07;;;;;;;12.85;64.57;101013.91;5115208;28;20209;-79
2021/04/19 10:22:19;;;;;;;25.30;23.20;;;;;;;12.88;65.46;101017.34;5115596;28;20206;-80
2021/04/19 10:24:53;;;;;;;24.70;22.70;;;;;;;12.94;64.90;101016.31;5119913;28;20596;-80
2021/04/19 10:27:26;;;;;;;23.50;21.73;;;;;;;12.94;64.42;101016.31;5117193;28;20618;-80
2021/04/19 10:29:53;;;;;;;21.90;20.13;;;;;;;12.93;65.06;101014.63;5119877;27;20203;-80
2021/04/19 10:32:28;;;;;;;23.23;21.43;;;;;;;13.04;64.71;101017.00;5118357;28;20217;-81
2021/04/19 10:34:54;;;;;;;21.77;20.07;;;;;;;13.10;64.70;101007.28;5116662;27;20621;-81
2021/04/19 10:37:20;;;;;;;21.67;19.93;;;;;;;13.19;63.57;101013.25;5114714;28;20206;-78
2021/04/19 10:39:46;;;;;;;23.50;21.47;;;;;;;13.02;63.54;101003.97;5112316;28;20262;-78
2021/04/19 10:42:12;;;;;;;23.57;21.57;;;;;;;12.85;63.71;101004.28;5111260;27;20207;-79
2021/04/19 10:44:41;;;;;;;22.70;21.00;;;;;;;12.92;64.99;101002.41;5110446;28;20210;-77
2021/04/19 10:47:08;;;;;;;23.37;21.43;;;;;;;13.06;64.71;100997.78;5110602;28;20223;-78
2021/04/19 10:49:35;;;;;;;24.70;22.70;;;;;;;13.20;65.11;101009.72;5112526;28;20206;-77
2021/04/19 10:52:03;;;;;;;23.57;21.67;;;;;;;13.44;63.34;101000.53;5111780;28;20578;-77
2021/04/19 10:54:31;;;;;;;24.97;22.80;;;;;;;13.61;63.10;100989.63;5111876;28;20734;-80
2021/04/19 10:56:58;;;;;;;26.53;24.03;;;;;;;13.64;63.83;100995.69;5110762;27;20226;-80
2021/04/19 10:59:25;;;;;;;26.00;23.63;;;;;;;13.77;62.62;100991.00;5111449;27;20206;-77
2021/04/19 11:01:59;;;;;;;25.37;23.20;;;;;;;13.85;62.05;100989.06;5110020;27;20672;-78
2021/04/19 11:04:26;;;;;;;26.60;24.37;;;;;;;13.87;61.98;100987.28;5110015;28;20280;-78
2021/04/19 11:06:53;;;;;;;26.10;23.90;;;;;;;14.02;61.94;100982.56;5110269;28;20637;-77
2021/04/19 11:09:26;;;;;;;26.50;24.30;;;;;;;14.21;60.99;100986.47;5109563;27;20890;-78
2021/04/19 11:11:52;;;;;;;25.77;23.47;;;;;;;14.39;60.54;100979.88;5110065;28;20660;-78
2021/04/19 11:14:20;;;;;;;25.23;23.23;;;;;;;14.35;60.89;100979.97;5109973;28;20233;-77
2021/04/19 11:17:05;;;;;;;25.77;23.43;;;;;;;14.41;59.27;100972.81;5108639;27;20590;-77
2021/04/19 11:19:37;;;;;;;24.83;22.90;;;;;;;14.39;59.95;100969.38;5110145;28;20221;-77
2021/04/19 11:22:26;;;;;;;26.13;23.93;;;;;;;14.50;60.31;100971.69;5110377;27;20657;-77